Time;durP1;ratioP1;P1;durP2;ratioP2;P2;SDS_P1;SDS_P2;PMS_P1;PMS_P2;Temp;Humidity;BMP_temperature;BMP_pressure;BME280_temperature;BME280_humidity;BME280_pressure;Samples;Min_cycle;Max_cycle;Signal;HPM_P1;HPM_P2
2022/10/21 00:00:39;;;;;;;20.45;10.65;;;;;;;13.64;100.00;100875.00;7373882;19;20424;-69
2022/10/21 00:03:09;;;;;;;19.40;11.48;;;;;;;13.65;100.00;100878.50;7377970;19;20432;-69
2022/10/21 00:05:38;;;;;;;23.40;11.20;;;;;;;13.67;100.00;100882.03;7380758;19;20015;-68
2022/10/21 00:08:11;;;;;;;24.40;11.60;;;;;;;13.72;100.00;100877.63;7380406;19;20082;-68
2022/10/21 00:10:40;;;;;;;21.52;11.50;;;;;;;13.71;100.00;100879.38;7378696;19;20098;-68
2022/10/21 00:13:10;;;;;;;23.80;11.70;;;;;;;13.72;100.00;100873.25;7383233;19;20355;-69
2022/10/21 00:15:40;;;;;;;20.35;11.23;;;;;;;13.69;100.00;100867.09;7376920;19;20514;-69
2022/10/21 00:18:10;;;;;;;24.27;11.15;;;;;;;13.71;100.00;100867.97;7376599;19;20335;-69
2022/10/21 00:20:42;;;;;;;24.27;11.35;;;;;;;13.68;100.00;100860.94;7372808;19;20031;-70
2022/10/21 00:23:14;;;;;;;19.38;11.27;;;;;;;13.69;100.00;100859.19;7373458;19;20018;-68
2022/10/21 00:25:44;;;;;;;23.52;10.80;;;;;;;13.62;100.00;100852.16;7374907;19;20017;-70
2022/10/21 00:28:14;;;;;;;30.58;10.88;;;;;;;13.58;100.00;100847.75;7375811;19;20013;-69
2022/10/21 00:30:45;;;;;;;23.70;11.48;;;;;;;13.54;100.00;100851.25;7377082;19;20006;-68
2022/10/21 00:33:15;;;;;;;22.55;11.90;;;;;;;13.53;100.00;100852.13;7379246;19;20770;-68
2022/10/21 00:35:45;;;;;;;21.33;10.60;;;;;;;13.51;100.00;100860.06;7375623;19;20011;-70
2022/10/21 00:38:17;;;;;;;20.48;10.50;;;;;;;13.46;100.00;100853.03;7380193;19;20014;-70
2022/10/21 00:40:47;;;;;;;20.45;10.50;;;;;;;13.46;100.00;100845.13;7377099;19;20015;-70
2022/10/21 00:43:17;;;;;;;21.00;11.07;;;;;;;13.49;100.00;100850.41;7379580;19;20010;-68
2022/10/21 00:45:50;;;;;;;23.02;11.07;;;;;;;13.43;100.00;100840.75;7380310;19;20011;-69
2022/10/21 00:48:28;;;;;;;20.10;10.60;;;;;;;13.38;100.00;100846.00;7377189;19;20230;-69
2022/10/21 00:51:02;;;;;;;23.98;11.40;;;;;;;13.31;100.00;100835.44;7380541;19;20504;-68
2022/10/21 00:53:37;;;;;;;20.83;10.40;;;;;;;13.27;100.00;100834.56;7378571;19;20021;-69
2022/10/21 00:56:10;;;;;;;21.25;10.05;;;;;;;13.16;100.00;100822.22;7378099;19;20018;-69
2022/10/21 00:58:45;;;;;;;19.45;10.18;;;;;;;13.07;100.00;100828.31;7380632;19;20017;-69
2022/10/21 01:01:15;;;;;;;20.60;9.18;;;;;;;12.94;100.00;100826.53;7377893;19;20018;-69
2022/10/21 01:03:50;;;;;;;19.02;8.93;;;;;;;12.85;100.00;100829.13;7379925;19;20425;-69
2022/10/21 01:06:23;;;;;;;18.83;9.98;;;;;;;12.72;100.00;100829.06;7381010;19;20400;-69
2022/10/21 01:08:57;;;;;;;19.05;9.13;;;;;;;12.65;100.00;100829.03;7379876;19;20571;-69
2022/10/21 01:11:30;;;;;;;20.92;10.80;;;;;;;12.58;100.00;100819.34;7380801;19;20014;-69
2022/10/21 01:14:12;;;;;;;17.10;9.60;;;;;;;12.47;100.00;100821.97;7381954;19;20095;-69
2022/10/21 01:16:49;;;;;;;17.08;8.45;;;;;;;12.40;100.00;100825.44;7374259;19;20025;-69
2022/10/21 01:19:43;;;;;;;17.30;9.23;;;;;;;12.32;100.00;100827.13;7378624;19;20020;-69
2022/10/21 01:22:27;;;;;;;19.13;9.35;;;;;;;12.22;100.00;100825.31;7376494;19;20018;-68
2022/10/21 01:25:18;;;;;;;16.10;9.15;;;;;;;12.13;100.00;100820.00;7369916;19;20021;-68
2022/10/21 01:27:57;;;;;;;22.02;9.98;;;;;;;12.05;100.00;100814.69;7379758;19;20015;-68
2022/10/21 01:30:44;;;;;;;16.60;9.55;;;;;;;12.00;100.00;100819.03;7380648;19;20375;-70
2022/10/21 01:33:40;;;;;;;17.00;10.50;;;;;;;11.99;100.00;100806.78;7377731;19;20006;-70
2022/10/21 01:36:27;;;;;;;20.42;10.35;;;;;;;12.08;100.00;100807.72;7373790;19;20010;-70
2022/10/21 01:39:07;;;;;;;21.55;10.90;;;;;;;12.08;100.00;100802.44;7376424;19;20018;-69
2022/10/21 01:41:42;;;;;;;20.63;10.70;;;;;;;12.12;100.00;100800.72;7372313;19;20007;-69
2022/10/21 01:44:22;;;;;;;19.33;9.77;;;;;;;12.07;100.00;100794.56;7374628;19;20531;-69
2022/10/21 01:46:59;;;;;;;22.65;12.10;;;;;;;12.07;100.00;100795.44;7375819;19;20015;-70
2022/10/21 01:49:34;;;;;;;25.58;11.77;;;;;;;12.06;100.00;100793.69;7378339;19;20014;-69
2022/10/21 01:52:05;;;;;;;24.00;12.23;;;;;;;12.02;100.00;100799.78;7375686;19;20052;-70
2022/10/21 01:54:39;;;;;;;26.38;12.43;;;;;;;11.99;100.00;100806.78;7376572;19;20010;-70
2022/10/21 01:57:09;;;;;;;;;;;;;;;11.97;100.00;100796.25;7373668;19;20018;-68
2022/10/21 01:59:41;;;;;;;24.75;12.35;;;;;;;11.97;100.00;100790.09;7374236;19;19915;-70
2022/10/21 02:02:15;;;;;;;25.08;11.98;;;;;;;11.92;100.00;100781.31;7375042;19;20031;-70
2022/10/21 02:04:47;;;;;;;23.38;11.57;;;;;;;11.90;100.00;100781.31;7378728;19;20029;-72
2022/10/21 02:07:16;;;;;;;22.85;11.82;;;;;;;11.88;100.00;100777.78;7375840;19;20029;-72
2022/10/21 02:09:46;;;;;;;22.17;12.10;;;;;;;11.85;100.00;100772.50;7374673;19;20718;-72
2022/10/21 02:12:18;;;;;;;20.33;11.00;;;;;;;11.80;100.00;100774.22;7375829;19;20021;-73
2022/10/21 02:14:52;;;;;;;29.02;13.07;;;;;;;11.76;100.00;100770.66;7372384;19;20017;-73
2022/10/21 02:17:28;;;;;;;24.45;13.52;;;;;;;11.73;100.00;100765.38;7377045;19;20011;-73
2022/10/21 02:20:01;;;;;;;23.38;11.63;;;;;;;11.66;100.00;100760.06;7376976;19;20589;-73
2022/10/21 02:22:32;;;;;;;23.98;13.15;;;;;;;11.59;100.00;100764.41;7375255;19;20022;-72
2022/10/21 02:25:07;;;;;;;29.90;13.43;;;;;;;11.59;100.00;100760.88;7377234;19;20010;-72
2022/10/21 02:27:37;;;;;;;23.95;13.27;;;;;;;11.59;100.00;100768.78;7373152;19;20015;-74
2022/10/21 02:30:08;;;;;;;22.52;11.75;;;;;;;11.52;100.00;100761.72;7377754;19;20014;-72
2022/10/21 02:32:49;;;;;;;21.48;11.98;;;;;;;11.52;100.00;100754.72;7376112;19;20482;-72
2022/10/21 02:35:31;;;;;;;23.52;12.00;;;;;;;11.51;100.00;100754.69;7369472;19;20441;-72
2022/10/21 02:38:07;;;;;;;28.20;13.95;;;;;;;11.50;100.00;100758.19;7377100;19;20529;-73
2022/10/21 02:40:40;;;;;;;25.80;13.57;;;;;;;11.47;100.00;100754.66;7376002;19;20039;-71
2022/10/21 02:43:14;;;;;;;25.52;12.07;;;;;;;11.45;100.00;100745.91;7374222;19;20120;-72
2022/10/21 02:45:47;;;;;;;23.67;12.48;;;;;;;11.50;100.00;100752.94;7374862;19;20042;-73
2022/10/21 02:48:19;;;;;;;23.30;12.57;;;;;;;11.51;100.00;100752.06;7376798;19;20006;-71
2022/10/21 02:50:49;;;;;;;25.88;13.32;;;;;;;11.55;100.00;100756.47;7375042;19;20015;-73
2022/10/21 02:53:18;;;;;;;24.15;12.25;;;;;;;11.56;100.00;100753.00;7368716;19;20006;-73
2022/10/21 02:55:48;;;;;;;22.75;12.98;;;;;;;11.54;100.00;100744.22;7375029;19;20026;-72
2022/10/21 02:58:18;;;;;;;20.58;11.90;;;;;;;11.46;100.00;100742.41;7374905;19;20010;-72
2022/10/21 03:00:47;;;;;;;23.77;12.75;;;;;;;11.37;100.00;100749.38;7375313;19;20491;-73
2022/10/21 03:03:20;;;;;;;18.20;10.57;;;;;;;11.31;100.00;100747.56;7375410;19;20039;-73
2022/10/21 03:05:50;;;;;;;19.70;11.30;;;;;;;11.32;100.00;100746.69;7377361;19;20037;-73
2022/10/21 03:08:20;;;;;;;18.58;10.75;;;;;;;11.31;100.00;100744.06;7376790;19;20088;-72
2022/10/21 03:10:50;;;;;;;18.13;9.45;;;;;;;11.31;100.00;100752.81;7376682;19;20109;-73
2022/10/21 03:13:22;;;;;;;18.33;9.68;;;;;;;11.28;100.00;100747.53;7375895;19;20473;-72
2022/10/21 03:15:52;;;;;;;18.88;10.30;;;;;;;11.26;100.00;100744.00;7371051;19;20029;-68
2022/10/21 03:18:24;;;;;;;16.58;9.30;;;;;;;11.23;100.00;100738.75;7375173;19;20022;-68
2022/10/21 03:20:54;;;;;;;18.58;9.90;;;;;;;11.21;100.00;100734.34;7374503;19;20011;-68
2022/10/21 03:23:23;;;;;;;16.13;9.27;;;;;;;11.16;100.00;100747.41;7375868;19;20023;-69
2022/10/21 03:25:53;;;;;;;18.50;10.57;;;;;;;11.13;100.00;100747.38;7375789;19;20029;-69
2022/10/21 03:28:22;;;;;;;18.13;9.35;;;;;;;11.11;100.00;100738.63;7377325;19;20483;-69
2022/10/21 03:30:52;;;;;;;18.02;9.48;;;;;;;11.07;100.00;100742.97;7370027;19;20025;-69
2022/10/21 03:33:24;;;;;;;19.40;9.73;;;;;;;11.05;100.00;100726.31;7372653;19;20022;-69
2022/10/21 03:35:54;;;;;;;29.52;9.93;;;;;;;11.07;100.00;100726.34;7376946;19;20011;-69
2022/10/21 03:38:24;;;;;;;18.60;9.90;;;;;;;11.00;100.00;100719.28;7378436;19;20014;-69
2022/10/21 03:40:53;;;;;;;15.95;9.15;;;;;;;10.96;100.00;100720.09;7376336;19;20320;-69
2022/10/21 03:43:23;;;;;;;18.88;9.48;;;;;;;10.93;100.00;100718.34;7382925;19;20558;-69
2022/10/21 03:45:52;;;;;;;17.42;9.50;;;;;;;10.91;100.00;100719.19;7379912;19;20006;-70
2022/10/21 03:48:25;;;;;;;15.63;9.20;;;;;;;10.88;100.00;100716.53;7384429;19;20116;-70
2022/10/21 03:50:56;;;;;;;18.58;10.57;;;;;;;10.89;100.00;100707.78;7383729;19;20014;-71
2022/10/21 03:53:26;;;;;;;16.38;9.07;;;;;;;10.88;100.00;100706.91;7376574;19;20010;-70
2022/10/21 03:56:11;;;;;;;17.40;9.77;;;;;;;10.91;100.00;100712.19;7381407;19;20007;-70
2022/10/21 03:58:41;;;;;;;19.23;10.15;;;;;;;10.93;100.00;100709.56;7382304;19;20014;-71
2022/10/21 04:01:13;;;;;;;18.02;9.82;;;;;;;10.95;100.00;100707.84;7384421;19;20021;-70
2022/10/21 04:03:46;;;;;;;21.37;9.97;;;;;;;11.00;100.00;100709.66;7381748;19;20054;-70
2022/10/21 04:06:15;;;;;;;16.05;9.75;;;;;;;11.02;100.00;100707.03;7381285;19;20454;-70
2022/10/21 04:08:45;;;;;;;19.00;10.30;;;;;;;11.09;100.00;100712.38;7378050;19;20018;-71
2022/10/21 04:11:15;;;;;;;17.63;9.60;;;;;;;11.13;100.00;100721.16;7381923;19;20082;-70
2022/10/21 04:13:44;;;;;;;22.45;10.20;;;;;;;11.17;100.00;100728.19;7377668;19;20018;-70
2022/10/21 04:16:17;;;;;;;20.52;10.07;;;;;;;11.13;100.00;100734.28;7380953;19;20033;-70
2022/10/21 04:18:50;;;;;;;20.35;10.43;;;;;;;11.05;100.00;100738.56;7382180;19;20018;-69
2022/10/21 04:21:19;;;;;;;21.80;10.87;;;;;;;10.95;100.00;100734.09;7378736;19;20488;-70
2022/10/21 04:23:49;;;;;;;18.83;10.25;;;;;;;11.02;100.00;100738.53;7379394;19;20003;-71
2022/10/21 04:26:19;;;;;;;19.88;9.90;;;;;;;11.02;100.00;100728.91;7379682;19;20043;-69
2022/10/21 04:28:48;;;;;;;18.80;9.55;;;;;;;10.99;100.00;100722.75;7379927;19;20015;-69
2022/10/21 04:31:18;;;;;;;20.42;9.18;;;;;;;10.94;100.00;100727.06;7377516;19;20010;-69
2022/10/21 04:33:50;;;;;;;18.67;9.25;;;;;;;10.94;100.00;100730.59;7378767;19;20026;-70
2022/10/21 04:36:20;;;;;;;18.75;9.57;;;;;;;10.92;100.00;100731.44;7377849;19;20041;-69
2022/10/21 04:38:50;;;;;;;17.17;8.90;;;;;;;10.86;100.00;100732.25;7379733;19;20471;-69
2022/10/21 04:41:19;;;;;;;18.13;9.48;;;;;;;10.86;100.00;100731.38;7375933;19;20021;-69
2022/10/21 04:43:49;;;;;;;15.32;9.00;;;;;;;10.89;100.00;100726.16;7381464;19;20018;-71
2022/10/21 04:46:19;;;;;;;19.30;9.25;;;;;;;10.98;100.00;100732.38;7377607;19;20017;-69
2022/10/21 04:48:51;;;;;;;20.33;10.75;;;;;;;11.15;100.00;100729.91;7375110;19;20257;-70
2022/10/21 04:51:21;;;;;;;20.25;9.57;;;;;;;11.26;100.00;100728.25;7380806;19;20033;-71
2022/10/21 04:53:51;;;;;;;18.52;9.63;;;;;;;11.37;100.00;100726.59;7371856;19;20310;-70
2022/10/21 04:56:21;;;;;;;18.70;9.13;;;;;;;11.45;100.00;100724.88;7381597;19;20554;-70
2022/10/21 04:58:50;;;;;;;23.42;9.60;;;;;;;11.59;100.00;100726.75;7379980;19;20487;-69
2022/10/21 05:01:20;;;;;;;18.50;9.07;;;;;;;11.55;100.00;100723.22;7380114;19;20487;-71
2022/10/21 05:03:52;;;;;;;17.55;9.52;;;;;;;11.62;100.00;100724.13;7381619;19;20413;-69
2022/10/21 05:06:22;;;;;;;17.42;8.85;;;;;;;11.67;100.00;100732.94;7380523;19;20018;-69
2022/10/21 05:08:52;;;;;;;22.02;10.02;;;;;;;11.79;100.00;100733.94;7380864;19;20025;-70
2022/10/21 05:11:22;;;;;;;20.85;9.55;;;;;;;11.79;100.00;100733.06;7376977;19;20011;-70
2022/10/21 05:13:51;;;;;;;16.70;8.35;;;;;;;11.81;100.00;100728.69;7378364;19;20042;-69
2022/10/21 05:16:22;;;;;;;17.00;8.68;;;;;;;11.78;100.00;100724.28;7380267;19;20010;-70
2022/10/21 05:18:55;;;;;;;17.73;9.02;;;;;;;11.87;100.00;100720.84;7381191;19;20013;-70
2022/10/21 05:21:24;;;;;;;18.13;8.90;;;;;;;11.88;100.00;100711.22;7379988;19;20019;-69
2022/10/21 05:23:54;;;;;;;17.60;8.88;;;;;;;11.93;100.00;100702.47;7380270;19;20014;-69
2022/10/21 05:26:24;;;;;;;21.80;9.23;;;;;;;11.93;100.00;100714.75;7378135;19;20010;-69
2022/10/21 05:28:54;;;;;;;20.58;8.35;;;;;;;11.90;100.00;100712.97;7378147;19;20371;-69
2022/10/21 05:31:23;;;;;;;22.05;8.55;;;;;;;11.89;100.00;100711.22;7373144;19;20022;-71
2022/10/21 05:33:56;;;;;;;15.80;8.70;;;;;;;11.92;100.00;100715.63;7377234;19;20047;-69
2022/10/21 05:36:25;;;;;;;39.58;9.73;;;;;;;11.89;100.00;100726.97;7377793;19;20018;-68
2022/10/21 05:38:56;;;;;;;16.73;8.10;;;;;;;11.90;100.00;100725.25;7379726;19;20330;-70
2022/10/21 05:41:26;;;;;;;13.20;8.00;;;;;;;11.88;100.00;100716.47;7380559;19;20019;-69
2022/10/21 05:43:55;;;;;;;17.88;8.75;;;;;;;11.86;100.00;100716.44;7380571;19;20018;-68
2022/10/21 05:46:25;;;;;;;16.25;7.53;;;;;;;11.81;100.00;100712.91;7381003;19;20048;-68
2022/10/21 05:48:58;;;;;;;15.95;7.97;;;;;;;11.81;100.00;100710.28;7378878;19;20035;-68
2022/10/21 05:51:27;;;;;;;17.75;7.30;;;;;;;11.77;100.00;100705.88;7380192;19;20007;-68
2022/10/21 05:53:58;;;;;;;15.38;7.20;;;;;;;11.74;100.00;100700.56;7373542;19;20021;-68
2022/10/21 05:56:27;;;;;;;15.95;8.00;;;;;;;11.74;100.00;100695.31;7376320;19;20025;-70
2022/10/21 05:58:57;;;;;;;15.25;7.22;;;;;;;11.72;100.00;100703.19;7371843;19;20015;-70
2022/10/21 06:01:27;;;;;;;18.33;7.75;;;;;;;11.73;100.00;100709.31;7377508;19;20022;-74
2022/10/21 06:04:00;;;;;;;15.63;6.60;;;;;;;11.72;100.00;100704.94;7377437;19;20471;-73
2022/10/21 06:06:30;;;;;;;13.80;7.20;;;;;;;11.70;100.00;100715.44;7374218;19;20025;-72
2022/10/21 06:09:00;;;;;;;16.95;7.15;;;;;;;11.68;100.00;100714.56;7374697;19;20010;-73
2022/10/21 06:11:30;;;;;;;18.05;7.55;;;;;;;11.65;100.00;100714.53;7376144;19;20019;-73
2022/10/21 06:14:00;;;;;;;16.83;7.68;;;;;;;11.66;100.00;100710.16;7369872;19;20583;-73
2022/10/21 06:16:33;;;;;;;12.45;6.80;;;;;;;11.65;100.00;100718.91;7376077;19;20018;-73
2022/10/21 06:19:06;;;;;;;14.80;6.93;;;;;;;11.67;100.00;100719.78;7372154;19;20011;-73
2022/10/21 06:21:35;;;;;;;14.70;7.10;;;;;;;11.69;100.00;100718.94;7378145;19;20010;-72
2022/10/21 06:24:05;;;;;;;16.05;7.07;;;;;;;11.72;100.00;100718.09;7377276;19;20064;-72
2022/10/21 06:26:35;;;;;;;12.05;6.43;;;;;;;11.71;100.00;100713.69;7377196;19;20014;-73
2022/10/21 06:29:06;;;;;;;13.85;6.53;;;;;;;11.76;100.00;100710.22;7375178;19;20007;-73
2022/10/21 06:31:35;;;;;;;14.95;6.35;;;;;;;11.77;100.00;100704.13;7372471;19;20007;-73
2022/10/21 06:34:07;;;;;;;14.95;6.90;;;;;;;11.73;100.00;100698.81;7371197;19;20011;-72
2022/10/21 06:36:37;;;;;;;18.20;7.13;;;;;;;11.68;100.00;100697.91;7375093;19;20018;-72
2022/10/21 06:39:07;;;;;;;15.27;7.68;;;;;;;11.66;100.00;100697.03;7374328;19;20010;-72
2022/10/21 06:41:36;;;;;;;16.25;6.60;;;;;;;11.64;100.00;100701.38;7371069;19;20006;-72
2022/10/21 06:44:06;;;;;;;15.10;6.75;;;;;;;11.63;100.00;100707.50;7373181;19;20011;-72
2022/10/21 06:46:36;;;;;;;15.82;7.15;;;;;;;11.62;100.00;100708.38;7373850;19;20022;-72
2022/10/21 06:49:08;;;;;;;16.80;7.65;;;;;;;11.61;100.00;100706.63;7373548;19;20479;-72
2022/10/21 06:51:37;;;;;;;13.27;6.68;;;;;;;11.60;100.00;100710.13;7369033;19;20018;-72
2022/10/21 06:54:07;;;;;;;15.88;6.63;;;;;;;11.60;100.00;100713.63;7364333;19;20014;-72
2022/10/21 06:56:37;;;;;;;14.48;7.10;;;;;;;11.61;100.00;100717.13;7372538;19;20490;-72
2022/10/21 06:59:06;;;;;;;15.05;6.63;;;;;;;11.70;100.00;100725.06;7372402;19;20021;-72
2022/10/21 07:01:36;;;;;;;13.77;6.45;;;;;;;11.67;100.00;100712.78;7373075;19;20030;-72
2022/10/21 07:04:29;;;;;;;16.33;7.03;;;;;;;11.65;100.00;100711.03;7362938;19;20017;-72
2022/10/21 07:06:59;;;;;;;14.80;7.63;;;;;;;11.66;100.00;100720.66;7370299;19;20010;-72
2022/10/21 07:09:29;;;;;;;15.07;6.47;;;;;;;11.61;100.00;100728.50;7371802;19;20412;-73
2022/10/21 07:11:59;;;;;;;15.98;7.90;;;;;;;11.58;100.00;100736.38;7367498;19;20010;-73
2022/10/21 07:14:28;;;;;;;18.40;8.18;;;;;;;11.58;100.00;100735.50;7368851;19;20029;-73
2022/10/21 07:16:59;;;;;;;18.58;8.27;;;;;;;11.56;100.00;100750.34;7376724;19;20017;-73
2022/10/21 07:19:32;;;;;;;15.32;8.05;;;;;;;11.54;100.00;100752.09;7375560;19;20014;-73
2022/10/21 07:22:02;;;;;;;19.60;10.27;;;;;;;11.57;100.00;100763.50;7376118;19;20018;-74
2022/10/21 07:24:32;;;;;;;16.40;8.77;;;;;;;11.59;100.00;100764.41;7373077;19;20018;-73
2022/10/21 07:27:03;;;;;;;13.00;7.32;;;;;;;11.61;100.00;100767.03;7372597;19;20018;-73
2022/10/21 07:29:32;;;;;;;14.00;7.97;;;;;;;11.61;100.00;100772.28;7374776;19;20530;-73
2022/10/21 07:32:02;;;;;;;15.02;8.25;;;;;;;11.68;100.00;100776.72;7375177;19;20110;-73
2022/10/21 07:34:35;;;;;;;15.40;7.22;;;;;;;11.73;100.00;100778.53;7366133;19;20011;-73
2022/10/21 07:37:05;;;;;;;13.90;7.10;;;;;;;11.76;100.00;100768.03;7368104;19;20048;-71
2022/10/21 07:39:34;;;;;;;22.63;7.88;;;;;;;11.82;100.00;100772.50;7371135;19;20021;-72
2022/10/21 07:42:04;;;;;;;15.55;7.90;;;;;;;11.83;100.00;100766.38;7364680;19;20369;-73
2022/10/21 07:44:34;;;;;;;20.45;8.18;;;;;;;11.84;100.00;100757.59;7373820;19;20028;-72
2022/10/21 07:47:03;;;;;;;13.73;7.18;;;;;;;11.83;100.00;100762.84;7371902;19;20056;-72
2022/10/21 07:49:36;;;;;;;15.52;7.82;;;;;;;11.84;100.00;100768.13;7369566;19;20483;-72
2022/10/21 07:52:05;;;;;;;15.57;6.72;;;;;;;11.87;100.00;100783.91;7369910;19;20175;-73
2022/10/21 07:54:35;;;;;;;14.68;7.47;;;;;;;11.97;100.00;100783.09;7369123;19;20011;-72
2022/10/21 07:57:05;;;;;;;13.85;7.15;;;;;;;12.01;100.00;100778.75;7370053;19;20021;-71
2022/10/21 07:59:35;;;;;;;14.05;6.80;;;;;;;12.06;100.00;100767.38;7371109;19;20019;-72
2022/10/21 08:02:04;;;;;;;15.15;7.75;;;;;;;12.14;100.00;100774.44;7371460;19;20697;-72
2022/10/21 08:04:36;;;;;;;14.55;7.25;;;;;;;12.21;100.00;100784.13;7371175;19;20357;-73
2022/10/21 08:07:06;;;;;;;16.85;6.90;;;;;;;12.26;100.00;100769.25;7371530;19;20011;-73
2022/10/21 08:09:41;;;;;;;11.70;6.50;;;;;;;12.29;100.00;100769.28;7373680;19;20303;-73
2022/10/21 08:12:11;;;;;;;13.82;6.10;;;;;;;12.31;100.00;100759.63;7373688;19;20019;-73
2022/10/21 08:14:43;;;;;;;16.73;6.15;;;;;;;12.36;100.00;100765.81;7372199;19;20487;-73
2022/10/21 08:17:13;;;;;;;14.82;7.18;;;;;;;12.38;100.00;100766.69;7375653;19;20323;-73
2022/10/21 08:19:48;;;;;;;13.68;6.88;;;;;;;12.42;100.00;100760.56;7369451;19;20042;-73
2022/10/21 08:22:18;;;;;;;15.80;7.57;;;;;;;12.44;100.00;100767.59;7374375;19;20393;-71
2022/10/21 08:24:48;;;;;;;12.68;6.72;;;;;;;12.49;100.00;100767.59;7379356;19;20040;-72
2022/10/21 08:27:17;;;;;;;14.00;6.40;;;;;;;12.52;100.00;100764.09;7382277;19;20408;-72
2022/10/21 08:29:49;;;;;;;18.08;7.30;;;;;;;12.56;100.00;100774.63;7379751;19;20345;-73
2022/10/21 08:32:18;;;;;;;16.55;7.07;;;;;;;12.59;100.00;100777.28;7382439;19;20422;-72
2022/10/21 08:34:50;;;;;;;14.50;6.38;;;;;;;12.66;100.00;100789.59;7377805;19;20585;-73
2022/10/21 08:37:20;;;;;;;18.95;7.50;;;;;;;12.71;100.00;100784.34;7378174;19;20581;-72
2022/10/21 08:39:54;;;;;;;19.80;7.72;;;;;;;12.79;100.00;100790.50;7377786;19;20134;-72
2022/10/21 08:42:24;;;;;;;16.88;7.32;;;;;;;12.86;100.00;100783.50;7378520;19;20045;-72
2022/10/21 08:44:58;;;;;;;13.82;6.78;;;;;;;12.94;100.00;100776.50;7380325;19;20021;-73
2022/10/21 08:47:43;;;;;;;12.23;6.72;;;;;;;13.01;100.00;100768.63;7378433;19;20115;-73
2022/10/21 08:50:18;;;;;;;14.70;6.70;;;;;;;13.14;100.00;100768.66;7381506;19;20018;-72
2022/10/21 08:52:52;;;;;;;13.68;6.38;;;;;;;13.21;100.00;100766.06;7380218;19;20015;-72
2022/10/21 08:55:24;;;;;;;17.90;7.10;;;;;;;13.29;100.00;100769.59;7378457;19;20011;-72
2022/10/21 08:57:55;;;;;;;17.05;6.40;;;;;;;13.39;100.00;100771.38;7377163;19;20422;-72
2022/10/21 09:00:30;;;;;;;14.07;6.78;;;;;;;13.44;100.00;100774.00;7377996;19;20025;-72
2022/10/21 09:03:13;;;;;;;13.13;5.68;;;;;;;13.51;100.00;100773.13;7379543;19;20018;-72
2022/10/21 09:06:02;;;;;;;13.98;6.00;;;;;;;13.62;100.00;100775.72;7377187;19;20019;-72
2022/10/21 09:08:40;;;;;;;9.63;5.40;;;;;;;13.68;100.00;100759.91;7382183;19;20011;-73
2022/10/21 09:11:20;;;;;;;17.70;6.80;;;;;;;13.76;100.00;100766.06;7377541;19;20409;-72
2022/10/21 09:14:33;;;;;;;17.77;6.28;;;;;;;13.84;100.00;100769.56;7380194;19;20014;-72
2022/10/21 09:17:17;;;;;;;13.32;6.13;;;;;;;13.93;100.00;100779.22;7371902;19;20338;-73
2022/10/21 09:19:58;;;;;;;14.95;6.50;;;;;;;14.03;100.00;100775.69;7376718;19;20074;-73
2022/10/21 09:22:45;;;;;;;15.73;6.22;;;;;;;14.11;100.00;100784.47;7379718;19;20019;-73
2022/10/21 09:25:27;;;;;;;15.02;6.25;;;;;;;14.18;100.00;100791.47;7378965;19;20014;-74
2022/10/21 09:27:58;;;;;;;14.40;6.32;;;;;;;14.20;100.00;100799.41;7378310;19;20390;-72
2022/10/21 09:30:29;;;;;;;14.95;5.80;;;;;;;14.28;100.00;100790.59;7380045;19;20034;-73
2022/10/21 09:33:00;;;;;;;14.57;6.20;;;;;;;14.32;100.00;100792.31;7379324;19;20021;-74
2022/10/21 09:35:36;;;;;;;16.52;6.40;;;;;;;14.36;100.00;100790.56;7379215;19;20021;-73
2022/10/21 09:38:18;;;;;;;13.00;6.10;;;;;;;14.42;100.00;100781.78;7369423;19;20015;-70
2022/10/21 09:40:51;;;;;;;14.63;6.03;;;;;;;14.45;100.00;100789.69;7374431;19;20491;-70
2022/10/21 09:43:25;;;;;;;12.80;5.35;;;;;;;14.52;100.00;100788.78;7380581;19;20368;-70
2022/10/21 09:45:56;;;;;;;13.05;5.68;;;;;;;14.57;100.00;100785.22;7379034;19;20018;-68
2022/10/21 09:48:33;;;;;;;13.07;5.85;;;;;;;14.67;100.00;100780.78;7378638;19;20023;-70
2022/10/21 09:51:28;;;;;;;17.67;5.85;;;;;;;14.77;100.00;100782.47;7376559;19;20393;-69
2022/10/21 09:54:04;;;;;;;15.48;6.18;;;;;;;14.87;100.00;100785.97;7373781;19;20021;-68
2022/10/21 09:56:40;;;;;;;10.70;5.13;;;;;;;14.97;100.00;100790.31;7372747;19;20475;-68
2022/10/21 09:59:12;;;;;;;12.38;6.10;;;;;;;15.05;100.00;100775.28;7374313;19;20956;-68
2022/10/21 10:01:44;;;;;;;15.48;5.70;;;;;;;15.20;100.00;100777.84;7378108;19;20043;-68
2022/10/21 10:04:15;;;;;;;15.63;5.70;;;;;;;15.32;100.00;100777.75;7377524;19;20007;-68
2022/10/21 10:06:46;;;;;;;11.55;5.43;;;;;;;15.32;100.00;100788.31;7377733;19;20019;-69
2022/10/21 10:09:28;;;;;;;12.77;5.53;;;;;;;15.35;100.00;100783.03;7379212;19;20593;-69
2022/10/21 10:11:59;;;;;;;13.45;5.53;;;;;;;15.47;100.00;100789.09;7377744;19;20014;-68
2022/10/21 10:14:35;;;;;;;11.35;4.97;;;;;;;15.73;100.00;100779.19;7378291;19;20352;-69
2022/10/21 10:17:30;;;;;;;13.98;5.47;;;;;;;15.99;100.00;100771.91;7373932;19;20010;-68
2022/10/21 10:20:24;;;;;;;10.80;5.53;;;;;;;16.32;100.00;100769.78;7377790;19;20019;-69
2022/10/21 10:23:18;;;;;;;13.35;5.50;;;;;;;16.42;100.00;100776.72;7372312;19;20018;-68
2022/10/21 10:25:54;;;;;;;11.07;5.15;;;;;;;16.40;100.00;100777.66;7374625;19;20019;-69
2022/10/21 10:28:27;;;;;;;15.55;5.82;;;;;;;16.60;100.00;100779.16;7375732;19;20372;-68
2022/10/21 10:30:58;;;;;;;12.32;6.47;;;;;;;16.62;100.00;100780.03;7371435;19;20010;-68
2022/10/21 10:33:30;;;;;;;15.30;5.40;;;;;;;16.64;100.00;100783.53;7371566;19;20046;-68
2022/10/21 10:36:03;;;;;;;10.13;4.35;;;;;;;16.71;100.00;100786.09;7370940;19;20504;-68
2022/10/21 10:38:37;;;;;;;10.73;4.70;;;;;;;16.89;100.00;100780.56;7368756;19;20017;-68
2022/10/21 10:41:12;;;;;;;11.55;5.38;;;;;;;16.92;100.00;100792.00;7371837;19;20721;-69
2022/10/21 10:43:47;;;;;;;11.05;4.80;;;;;;;16.99;100.00;100779.53;7368457;19;20011;-69
2022/10/21 10:46:25;;;;;;;11.70;4.80;;;;;;;17.16;100.00;100781.94;7371822;19;20027;-68
2022/10/21 10:48:57;;;;;;;10.32;4.82;;;;;;;17.24;100.00;100793.31;7373411;19;20018;-68
2022/10/21 10:51:31;;;;;;;10.23;4.50;;;;;;;17.28;100.00;100800.31;7373358;19;20021;-67
2022/10/21 10:54:04;;;;;;;14.15;5.50;;;;;;;17.39;100.00;100797.50;7370801;19;20010;-67
2022/10/21 10:56:42;;;;;;;10.83;4.50;;;;;;;17.51;100.00;100784.94;7373294;19;20097;-69
2022/10/21 10:59:18;;;;;;;10.57;4.45;;;;;;;17.43;100.00;100789.50;7374471;19;20597;-66
2022/10/21 11:01:53;;;;;;;10.32;4.40;;;;;;;17.54;100.00;100789.31;7366317;19;20021;-67
2022/10/21 11:04:29;;;;;;;10.75;4.40;;;;;;;17.49;100.00;100791.16;7373287;19;20547;-70
2022/10/21 11:07:10;;;;;;;10.75;3.97;;;;;;;17.50;100.00;100782.31;7375829;19;20042;-68
2022/10/21 11:09:41;;;;;;;11.05;4.38;;;;;;;17.26;100.00;100784.44;7376319;19;20015;-68
2022/10/21 11:12:22;;;;;;;10.65;3.85;;;;;;;17.36;100.00;100784.31;7373172;19;20011;-68
2022/10/21 11:14:55;;;;;;;13.85;4.07;;;;;;;17.26;100.00;100781.78;7375760;19;20018;-65
2022/10/21 11:17:29;;;;;;;12.82;4.03;;;;;;;17.22;100.00;100771.25;7374808;19;20006;-66
2022/10/21 11:20:12;;;;;;;11.77;4.07;;;;;;;17.19;100.00;100782.78;7374949;19;20085;-65
2022/10/21 11:22:52;;;;;;;11.00;4.90;;;;;;;17.29;100.00;100776.44;7373624;19;20524;-65
2022/10/21 11:25:26;;;;;;;10.43;3.88;;;;;;;17.67;100.00;100790.03;7376202;19;20014;-66
2022/10/21 11:28:05;;;;;;;;;;;;;;;17.82;100.00;100780.00;7374306;19;20018;-64
2022/10/21 11:30:49;;;;;;;8.77;4.25;;;;;;;17.67;100.00;100790.91;7376587;19;19918;-67
2022/10/21 11:33:27;;;;;;;9.38;3.40;;;;;;;17.83;100.00;100779.09;7375589;19;20024;-65